sensor_id;sensor_type;location;lat;lon;timestamp;P1;durP1;ratioP1;P2;durP2;ratioP2
13263;SDS011;6700;51.988;7.646;2023-01-29T00:01:23;23.97;;;17.00;;
13263;SDS011;6700;51.988;7.646;2023-01-29T00:03:50;28.20;;;19.03;;
13263;SDS011;6700;51.988;7.646;2023-01-29T00:06:18;24.87;;;18.00;;
13263;SDS011;6700;51.988;7.646;2023-01-29T00:08:45;25.50;;;17.23;;
13263;SDS011;6700;51.988;7.646;2023-01-29T00:11:12;26.10;;;17.43;;
13263;SDS011;6700;51.988;7.646;2023-01-29T00:13:40;24.33;;;17.23;;
13263;SDS011;6700;51.988;7.646;2023-01-29T00:16:07;25.43;;;18.10;;
13263;SDS011;6700;51.988;7.646;2023-01-29T00:18:38;24.60;;;17.43;;
13263;SDS011;6700;51.988;7.646;2023-01-29T00:21:12;23.87;;;16.23;;
13263;SDS011;6700;51.988;7.646;2023-01-29T00:23:40;29.97;;;18.57;;
13263;SDS011;6700;51.988;7.646;2023-01-29T00:26:07;26.53;;;17.97;;
13263;SDS011;6700;51.988;7.646;2023-01-29T00:28:35;25.83;;;17.07;;
13263;SDS011;6700;51.988;7.646;2023-01-29T00:31:06;27.67;;;19.80;;
13263;SDS011;6700;51.988;7.646;2023-01-29T00:33:33;28.70;;;18.97;;
13263;SDS011;6700;51.988;7.646;2023-01-29T00:36:04;26.17;;;18.57;;
13263;SDS011;6700;51.988;7.646;2023-01-29T00:38:32;27.00;;;19.83;;
13263;SDS011;6700;51.988;7.646;2023-01-29T00:41:10;29.70;;;20.30;;
13263;SDS011;6700;51.988;7.646;2023-01-29T00:43:56;26.47;;;18.40;;
13263;SDS011;6700;51.988;7.646;2023-01-29T00:46:42;28.00;;;18.60;;
13263;SDS011;6700;51.988;7.646;2023-01-29T00:49:10;27.17;;;19.57;;
13263;SDS011;6700;51.988;7.646;2023-01-29T00:51:37;27.37;;;18.73;;
13263;SDS011;6700;51.988;7.646;2023-01-29T00:54:05;31.87;;;18.90;;
13263;SDS011;6700;51.988;7.646;2023-01-29T00:56:33;27.83;;;19.07;;
13263;SDS011;6700;51.988;7.646;2023-01-29T00:59:00;25.67;;;18.40;;
13263;SDS011;6700;51.988;7.646;2023-01-29T01:01:28;26.57;;;19.00;;
13263;SDS011;6700;51.988;7.646;2023-01-29T01:04:13;28.50;;;20.13;;
13263;SDS011;6700;51.988;7.646;2023-01-29T01:06:41;28.87;;;18.73;;
13263;SDS011;6700;51.988;7.646;2023-01-29T01:09:08;28.60;;;19.13;;
13263;SDS011;6700;51.988;7.646;2023-01-29T01:11:54;28.67;;;19.83;;
13263;SDS011;6700;51.988;7.646;2023-01-29T01:14:21;31.17;;;19.70;;
13263;SDS011;6700;51.988;7.646;2023-01-29T01:16:51;29.50;;;19.57;;
13263;SDS011;6700;51.988;7.646;2023-01-29T01:19:18;31.70;;;20.53;;
13263;SDS011;6700;51.988;7.646;2023-01-29T01:21:46;29.07;;;20.20;;
13263;SDS011;6700;51.988;7.646;2023-01-29T01:24:13;30.57;;;20.57;;
13263;SDS011;6700;51.988;7.646;2023-01-29T01:26:41;30.37;;;20.97;;
13263;SDS011;6700;51.988;7.646;2023-01-29T01:29:08;29.17;;;20.27;;
13263;SDS011;6700;51.988;7.646;2023-01-29T01:31:35;29.60;;;19.40;;
13263;SDS011;6700;51.988;7.646;2023-01-29T01:34:03;31.60;;;21.40;;
13263;SDS011;6700;51.988;7.646;2023-01-29T01:36:30;31.07;;;21.30;;
13263;SDS011;6700;51.988;7.646;2023-01-29T01:38:57;30.57;;;20.53;;
13263;SDS011;6700;51.988;7.646;2023-01-29T01:41:27;31.30;;;20.60;;
13263;SDS011;6700;51.988;7.646;2023-01-29T01:43:58;30.23;;;20.50;;
13263;SDS011;6700;51.988;7.646;2023-01-29T01:46:30;29.27;;;20.13;;
13263;SDS011;6700;51.988;7.646;2023-01-29T01:49:01;32.17;;;20.40;;
13263;SDS011;6700;51.988;7.646;2023-01-29T01:51:30;31.80;;;21.17;;
13263;SDS011;6700;51.988;7.646;2023-01-29T01:54:00;31.93;;;21.00;;
13263;SDS011;6700;51.988;7.646;2023-01-29T01:56:30;34.37;;;22.57;;
13263;SDS011;6700;51.988;7.646;2023-01-29T01:59:05;30.67;;;21.30;;
13263;SDS011;6700;51.988;7.646;2023-01-29T02:01:33;34.60;;;22.10;;
13263;SDS011;6700;51.988;7.646;2023-01-29T02:04:00;35.07;;;22.20;;
13263;SDS011;6700;51.988;7.646;2023-01-29T02:06:47;31.43;;;21.03;;
13263;SDS011;6700;51.988;7.646;2023-01-29T02:09:35;34.17;;;22.47;;
13263;SDS011;6700;51.988;7.646;2023-01-29T02:12:06;33.27;;;21.63;;
13263;SDS011;6700;51.988;7.646;2023-01-29T02:14:34;32.67;;;22.20;;
13263;SDS011;6700;51.988;7.646;2023-01-29T02:17:08;34.17;;;21.13;;
13263;SDS011;6700;51.988;7.646;2023-01-29T02:22:34;30.60;;;21.30;;
13263;SDS011;6700;51.988;7.646;2023-01-29T02:30:06;35.63;;;22.40;;
13263;SDS011;6700;51.988;7.646;2023-01-29T02:35:09;32.03;;;22.20;;
13263;SDS011;6700;51.988;7.646;2023-01-29T02:40:43;35.33;;;23.73;;
13263;SDS011;6700;51.988;7.646;2023-01-29T02:45:43;35.83;;;22.77;;
13263;SDS011;6700;51.988;7.646;2023-01-29T02:48:19;37.20;;;23.47;;
13263;SDS011;6700;51.988;7.646;2023-01-29T02:53:51;36.10;;;22.60;;
13263;SDS011;6700;51.988;7.646;2023-01-29T02:56:20;36.00;;;22.70;;
13263;SDS011;6700;51.988;7.646;2023-01-29T02:58:51;35.00;;;23.03;;
13263;SDS011;6700;51.988;7.646;2023-01-29T03:01:22;36.67;;;23.47;;
13263;SDS011;6700;51.988;7.646;2023-01-29T03:03:52;33.70;;;22.63;;
13263;SDS011;6700;51.988;7.646;2023-01-29T03:08:56;37.43;;;24.90;;
13263;SDS011;6700;51.988;7.646;2023-01-29T03:11:25;34.67;;;23.30;;
13263;SDS011;6700;51.988;7.646;2023-01-29T03:13:55;36.83;;;23.30;;
13263;SDS011;6700;51.988;7.646;2023-01-29T03:19:11;34.63;;;21.93;;
13263;SDS011;6700;51.988;7.646;2023-01-29T03:21:46;33.63;;;23.13;;
13263;SDS011;6700;51.988;7.646;2023-01-29T03:24:24;37.27;;;22.63;;
13263;SDS011;6700;51.988;7.646;2023-01-29T03:27:11;40.80;;;23.33;;
13263;SDS011;6700;51.988;7.646;2023-01-29T03:29:59;37.20;;;22.90;;
13263;SDS011;6700;51.988;7.646;2023-01-29T03:32:46;33.83;;;22.70;;
13263;SDS011;6700;51.988;7.646;2023-01-29T03:35:13;36.93;;;23.53;;
13263;SDS011;6700;51.988;7.646;2023-01-29T03:37:46;34.03;;;22.27;;
13263;SDS011;6700;51.988;7.646;2023-01-29T03:40:14;30.20;;;20.57;;
13263;SDS011;6700;51.988;7.646;2023-01-29T03:53:01;34.20;;;21.13;;
13263;SDS011;6700;51.988;7.646;2023-01-29T04:00:56;30.63;;;20.50;;
13263;SDS011;6700;51.988;7.646;2023-01-29T04:09:10;33.07;;;20.87;;
13263;SDS011;6700;51.988;7.646;2023-01-29T04:11:40;35.80;;;21.30;;
13263;SDS011;6700;51.988;7.646;2023-01-29T04:14:09;33.03;;;21.47;;
13263;SDS011;6700;51.988;7.646;2023-01-29T04:16:37;35.87;;;21.17;;
13263;SDS011;6700;51.988;7.646;2023-01-29T04:19:06;34.17;;;22.67;;
13263;SDS011;6700;51.988;7.646;2023-01-29T04:21:34;36.93;;;22.00;;
13263;SDS011;6700;51.988;7.646;2023-01-29T04:24:03;33.43;;;22.13;;
13263;SDS011;6700;51.988;7.646;2023-01-29T04:42:30;38.20;;;23.40;;
13263;SDS011;6700;51.988;7.646;2023-01-29T04:45:05;35.43;;;21.23;;
13263;SDS011;6700;51.988;7.646;2023-01-29T04:47:43;31.27;;;21.07;;
13263;SDS011;6700;51.988;7.646;2023-01-29T04:52:46;36.87;;;22.40;;
13263;SDS011;6700;51.988;7.646;2023-01-29T04:57:50;34.63;;;22.77;;
13263;SDS011;6700;51.988;7.646;2023-01-29T05:00:19;37.30;;;23.07;;
13263;SDS011;6700;51.988;7.646;2023-01-29T05:02:49;32.43;;;22.30;;
13263;SDS011;6700;51.988;7.646;2023-01-29T05:05:17;34.10;;;22.03;;
13263;SDS011;6700;51.988;7.646;2023-01-29T05:07:45;36.07;;;22.07;;
13263;SDS011;6700;51.988;7.646;2023-01-29T05:10:14;34.60;;;23.53;;
13263;SDS011;6700;51.988;7.646;2023-01-29T05:12:42;36.43;;;21.63;;
13263;SDS011;6700;51.988;7.646;2023-01-29T05:15:11;36.93;;;22.47;;
13263;SDS011;6700;51.988;7.646;2023-01-29T05:17:39;37.53;;;23.40;;
13263;SDS011;6700;51.988;7.646;2023-01-29T05:20:09;40.17;;;22.17;;
13263;SDS011;6700;51.988;7.646;2023-01-29T05:22:37;37.03;;;23.67;;
13263;SDS011;6700;51.988;7.646;2023-01-29T05:25:21;36.47;;;22.27;;
13263;SDS011;6700;51.988;7.646;2023-01-29T05:27:49;33.93;;;22.93;;
13263;SDS011;6700;51.988;7.646;2023-01-29T05:30:34;37.33;;;23.57;;
13263;SDS011;6700;51.988;7.646;2023-01-29T05:33:01;34.93;;;22.23;;
13263;SDS011;6700;51.988;7.646;2023-01-29T05:35:29;34.33;;;22.33;;
13263;SDS011;6700;51.988;7.646;2023-01-29T05:37:57;34.63;;;23.30;;
13263;SDS011;6700;51.988;7.646;2023-01-29T05:40:25;37.37;;;24.07;;
13263;SDS011;6700;51.988;7.646;2023-01-29T05:42:52;34.60;;;22.00;;
13263;SDS011;6700;51.988;7.646;2023-01-29T05:45:19;36.07;;;22.13;;
13263;SDS011;6700;51.988;7.646;2023-01-29T05:47:46;35.63;;;22.23;;
13263;SDS011;6700;51.988;7.646;2023-01-29T05:50:13;35.40;;;22.57;;
13263;SDS011;6700;51.988;7.646;2023-01-29T05:52:41;38.60;;;21.67;;
13263;SDS011;6700;51.988;7.646;2023-01-29T05:55:09;35.40;;;22.37;;
13263;SDS011;6700;51.988;7.646;2023-01-29T05:57:36;31.83;;;21.13;;
13263;SDS011;6700;51.988;7.646;2023-01-29T06:00:04;35.27;;;21.80;;
13263;SDS011;6700;51.988;7.646;2023-01-29T06:02:31;33.80;;;22.03;;
13263;SDS011;6700;51.988;7.646;2023-01-29T06:04:58;35.53;;;23.03;;
13263;SDS011;6700;51.988;7.646;2023-01-29T06:07:25;31.57;;;20.47;;
13263;SDS011;6700;51.988;7.646;2023-01-29T06:09:52;31.30;;;20.90;;
13263;SDS011;6700;51.988;7.646;2023-01-29T06:12:20;35.17;;;21.53;;
13263;SDS011;6700;51.988;7.646;2023-01-29T06:14:47;33.87;;;21.57;;
13263;SDS011;6700;51.988;7.646;2023-01-29T06:17:14;34.47;;;22.30;;
13263;SDS011;6700;51.988;7.646;2023-01-29T06:19:41;33.23;;;21.47;;
13263;SDS011;6700;51.988;7.646;2023-01-29T06:22:08;30.83;;;20.13;;
13263;SDS011;6700;51.988;7.646;2023-01-29T06:24:35;35.53;;;22.30;;
13263;SDS011;6700;51.988;7.646;2023-01-29T06:27:03;33.83;;;21.63;;
13263;SDS011;6700;51.988;7.646;2023-01-29T06:29:30;30.87;;;19.23;;
13263;SDS011;6700;51.988;7.646;2023-01-29T06:31:57;34.37;;;21.67;;
13263;SDS011;6700;51.988;7.646;2023-01-29T06:34:25;33.00;;;21.33;;
13263;SDS011;6700;51.988;7.646;2023-01-29T06:36:52;32.03;;;21.03;;
13263;SDS011;6700;51.988;7.646;2023-01-29T06:39:19;34.17;;;21.97;;
13263;SDS011;6700;51.988;7.646;2023-01-29T06:41:47;35.10;;;21.47;;
13263;SDS011;6700;51.988;7.646;2023-01-29T06:44:14;32.40;;;20.80;;
13263;SDS011;6700;51.988;7.646;2023-01-29T06:46:41;32.00;;;20.77;;
13263;SDS011;6700;51.988;7.646;2023-01-29T06:49:08;34.13;;;21.57;;
13263;SDS011;6700;51.988;7.646;2023-01-29T06:51:35;34.50;;;21.03;;
13263;SDS011;6700;51.988;7.646;2023-01-29T06:54:02;29.80;;;19.50;;
13263;SDS011;6700;51.988;7.646;2023-01-29T06:56:31;29.70;;;19.17;;
13263;SDS011;6700;51.988;7.646;2023-01-29T06:58:58;34.63;;;21.53;;
13263;SDS011;6700;51.988;7.646;2023-01-29T07:01:25;30.90;;;21.30;;
13263;SDS011;6700;51.988;7.646;2023-01-29T07:04:01;34.73;;;20.73;;
13263;SDS011;6700;51.988;7.646;2023-01-29T07:06:28;36.17;;;22.30;;
13263;SDS011;6700;51.988;7.646;2023-01-29T07:08:56;34.53;;;20.33;;
13263;SDS011;6700;51.988;7.646;2023-01-29T07:11:23;31.43;;;19.97;;
13263;SDS011;6700;51.988;7.646;2023-01-29T07:13:50;30.30;;;20.03;;
13263;SDS011;6700;51.988;7.646;2023-01-29T07:16:17;31.27;;;20.30;;
13263;SDS011;6700;51.988;7.646;2023-01-29T07:18:44;30.80;;;20.27;;
13263;SDS011;6700;51.988;7.646;2023-01-29T07:21:12;32.80;;;20.70;;
13263;SDS011;6700;51.988;7.646;2023-01-29T07:23:39;31.83;;;20.47;;
13263;SDS011;6700;51.988;7.646;2023-01-29T07:26:06;30.03;;;20.70;;
13263;SDS011;6700;51.988;7.646;2023-01-29T07:28:37;35.67;;;21.40;;
13263;SDS011;6700;51.988;7.646;2023-01-29T07:31:04;34.13;;;21.23;;
13263;SDS011;6700;51.988;7.646;2023-01-29T07:33:32;31.73;;;21.40;;
13263;SDS011;6700;51.988;7.646;2023-01-29T07:35:59;31.80;;;20.80;;
13263;SDS011;6700;51.988;7.646;2023-01-29T07:38:26;31.33;;;20.20;;
13263;SDS011;6700;51.988;7.646;2023-01-29T07:40:53;30.77;;;21.60;;
13263;SDS011;6700;51.988;7.646;2023-01-29T07:43:20;34.07;;;20.40;;
13263;SDS011;6700;51.988;7.646;2023-01-29T07:45:50;36.20;;;22.07;;
13263;SDS011;6700;51.988;7.646;2023-01-29T07:48:17;35.83;;;21.47;;
13263;SDS011;6700;51.988;7.646;2023-01-29T07:50:44;29.07;;;19.10;;
13263;SDS011;6700;51.988;7.646;2023-01-29T07:53:14;31.40;;;19.20;;
13263;SDS011;6700;51.988;7.646;2023-01-29T07:55:45;30.53;;;20.50;;
13263;SDS011;6700;51.988;7.646;2023-01-29T07:58:12;34.00;;;21.47;;
13263;SDS011;6700;51.988;7.646;2023-01-29T08:00:39;33.40;;;20.17;;
13263;SDS011;6700;51.988;7.646;2023-01-29T08:03:08;33.70;;;20.43;;
13263;SDS011;6700;51.988;7.646;2023-01-29T08:05:36;32.87;;;20.83;;
13263;SDS011;6700;51.988;7.646;2023-01-29T08:08:04;30.50;;;19.27;;
13263;SDS011;6700;51.988;7.646;2023-01-29T08:10:36;32.97;;;20.30;;
13263;SDS011;6700;51.988;7.646;2023-01-29T08:13:07;31.63;;;19.07;;
13263;SDS011;6700;51.988;7.646;2023-01-29T08:15:34;30.20;;;19.47;;
13263;SDS011;6700;51.988;7.646;2023-01-29T08:18:05;32.80;;;20.27;;
13263;SDS011;6700;51.988;7.646;2023-01-29T08:20:32;30.63;;;19.47;;
13263;SDS011;6700;51.988;7.646;2023-01-29T08:23:03;33.27;;;19.83;;
13263;SDS011;6700;51.988;7.646;2023-01-29T08:25:31;32.47;;;19.53;;
13263;SDS011;6700;51.988;7.646;2023-01-29T08:28:02;31.03;;;19.80;;
13263;SDS011;6700;51.988;7.646;2023-01-29T08:30:31;33.80;;;19.90;;
13263;SDS011;6700;51.988;7.646;2023-01-29T08:32:59;30.53;;;19.80;;
13263;SDS011;6700;51.988;7.646;2023-01-29T08:35:26;35.20;;;20.97;;
13263;SDS011;6700;51.988;7.646;2023-01-29T08:37:54;31.43;;;20.80;;
13263;SDS011;6700;51.988;7.646;2023-01-29T08:40:21;31.93;;;19.40;;
13263;SDS011;6700;51.988;7.646;2023-01-29T08:42:48;31.40;;;20.40;;
13263;SDS011;6700;51.988;7.646;2023-01-29T08:45:16;30.50;;;19.43;;
13263;SDS011;6700;51.988;7.646;2023-01-29T08:47:46;33.13;;;20.17;;
13263;SDS011;6700;51.988;7.646;2023-01-29T08:50:14;30.03;;;19.20;;
13263;SDS011;6700;51.988;7.646;2023-01-29T08:52:42;33.90;;;20.53;;
13263;SDS011;6700;51.988;7.646;2023-01-29T08:55:10;30.63;;;19.83;;
13263;SDS011;6700;51.988;7.646;2023-01-29T08:57:37;32.57;;;19.97;;
13263;SDS011;6700;51.988;7.646;2023-01-29T09:00:05;30.47;;;20.27;;
13263;SDS011;6700;51.988;7.646;2023-01-29T09:02:32;32.90;;;20.93;;
13263;SDS011;6700;51.988;7.646;2023-01-29T09:05:00;29.17;;;19.00;;
13263;SDS011;6700;51.988;7.646;2023-01-29T09:07:28;29.67;;;20.07;;
13263;SDS011;6700;51.988;7.646;2023-01-29T09:09:55;32.27;;;19.90;;
13263;SDS011;6700;51.988;7.646;2023-01-29T09:12:22;33.60;;;21.07;;
13263;SDS011;6700;51.988;7.646;2023-01-29T09:14:49;33.13;;;21.10;;
13263;SDS011;6700;51.988;7.646;2023-01-29T09:17:16;31.13;;;20.77;;
13263;SDS011;6700;51.988;7.646;2023-01-29T09:19:43;32.87;;;21.17;;
13263;SDS011;6700;51.988;7.646;2023-01-29T09:22:10;29.33;;;20.27;;
13263;SDS011;6700;51.988;7.646;2023-01-29T09:24:38;32.97;;;19.57;;
13263;SDS011;6700;51.988;7.646;2023-01-29T09:27:05;31.40;;;20.03;;
13263;SDS011;6700;51.988;7.646;2023-01-29T09:29:32;30.73;;;20.43;;
13263;SDS011;6700;51.988;7.646;2023-01-29T09:32:02;32.57;;;20.30;;
13263;SDS011;6700;51.988;7.646;2023-01-29T09:34:29;33.17;;;20.70;;
13263;SDS011;6700;51.988;7.646;2023-01-29T09:36:56;31.57;;;20.20;;
13263;SDS011;6700;51.988;7.646;2023-01-29T09:39:23;31.70;;;20.97;;
13263;SDS011;6700;51.988;7.646;2023-01-29T09:41:52;29.23;;;19.63;;
13263;SDS011;6700;51.988;7.646;2023-01-29T09:46:54;29.37;;;20.20;;
13263;SDS011;6700;51.988;7.646;2023-01-29T09:49:24;31.00;;;20.83;;
13263;SDS011;6700;51.988;7.646;2023-01-29T09:51:55;32.60;;;20.27;;
13263;SDS011;6700;51.988;7.646;2023-01-29T09:54:24;29.97;;;20.67;;
13263;SDS011;6700;51.988;7.646;2023-01-29T09:56:54;33.83;;;21.73;;
13263;SDS011;6700;51.988;7.646;2023-01-29T09:59:22;31.33;;;19.87;;
13263;SDS011;6700;51.988;7.646;2023-01-29T10:09:55;35.17;;;22.17;;
13263;SDS011;6700;51.988;7.646;2023-01-29T10:12:29;34.30;;;22.50;;
13263;SDS011;6700;51.988;7.646;2023-01-29T10:25:21;30.73;;;19.80;;
13263;SDS011;6700;51.988;7.646;2023-01-29T10:27:50;33.50;;;21.20;;
13263;SDS011;6700;51.988;7.646;2023-01-29T10:32:55;33.00;;;20.90;;
13263;SDS011;6700;51.988;7.646;2023-01-29T10:35:23;32.03;;;19.83;;
13263;SDS011;6700;51.988;7.646;2023-01-29T10:37:53;35.37;;;21.47;;
13263;SDS011;6700;51.988;7.646;2023-01-29T10:40:21;30.27;;;20.50;;
13263;SDS011;6700;51.988;7.646;2023-01-29T10:43:12;32.90;;;19.97;;
13263;SDS011;6700;51.988;7.646;2023-01-29T10:45:45;33.50;;;20.03;;
13263;SDS011;6700;51.988;7.646;2023-01-29T10:50:58;34.87;;;21.67;;
13263;SDS011;6700;51.988;7.646;2023-01-29T10:58:58;33.07;;;22.20;;
13263;SDS011;6700;51.988;7.646;2023-01-29T11:01:28;32.73;;;21.40;;
13263;SDS011;6700;51.988;7.646;2023-01-29T11:03:58;30.70;;;20.93;;
13263;SDS011;6700;51.988;7.646;2023-01-29T11:06:30;32.83;;;20.67;;
13263;SDS011;6700;51.988;7.646;2023-01-29T11:09:00;32.53;;;19.90;;
13263;SDS011;6700;51.988;7.646;2023-01-29T11:14:01;36.97;;;22.47;;
13263;SDS011;6700;51.988;7.646;2023-01-29T11:16:39;32.90;;;20.47;;
13263;SDS011;6700;51.988;7.646;2023-01-29T11:19:09;36.10;;;22.73;;
13263;SDS011;6700;51.988;7.646;2023-01-29T11:24:19;34.93;;;22.23;;
13263;SDS011;6700;51.988;7.646;2023-01-29T11:26:49;33.00;;;21.40;;
13263;SDS011;6700;51.988;7.646;2023-01-29T11:32:05;54.37;;;31.33;;
13263;SDS011;6700;51.988;7.646;2023-01-29T11:34:33;58.43;;;31.50;;
13263;SDS011;6700;51.988;7.646;2023-01-29T11:37:14;46.17;;;26.10;;
13263;SDS011;6700;51.988;7.646;2023-01-29T11:39:42;68.93;;;41.20;;
13263;SDS011;6700;51.988;7.646;2023-01-29T11:42:19;88.67;;;52.10;;
13263;SDS011;6700;51.988;7.646;2023-01-29T11:44:46;43.27;;;26.30;;
13263;SDS011;6700;51.988;7.646;2023-01-29T11:47:20;45.80;;;28.90;;
13263;SDS011;6700;51.988;7.646;2023-01-29T11:49:52;64.40;;;38.87;;
13263;SDS011;6700;51.988;7.646;2023-01-29T11:52:21;66.17;;;41.27;;
13263;SDS011;6700;51.988;7.646;2023-01-29T11:54:53;42.83;;;28.97;;
13263;SDS011;6700;51.988;7.646;2023-01-29T11:57:37;34.20;;;21.33;;
13263;SDS011;6700;51.988;7.646;2023-01-29T12:00:21;36.83;;;22.27;;
13263;SDS011;6700;51.988;7.646;2023-01-29T12:02:53;37.60;;;24.70;;
13263;SDS011;6700;51.988;7.646;2023-01-29T12:05:23;35.47;;;22.00;;
13263;SDS011;6700;51.988;7.646;2023-01-29T12:07:52;37.10;;;21.93;;
13263;SDS011;6700;51.988;7.646;2023-01-29T12:10:30;33.37;;;22.47;;
13263;SDS011;6700;51.988;7.646;2023-01-29T12:13:05;40.33;;;23.60;;
13263;SDS011;6700;51.988;7.646;2023-01-29T12:15:33;32.53;;;21.83;;
13263;SDS011;6700;51.988;7.646;2023-01-29T12:18:11;36.00;;;21.80;;
13263;SDS011;6700;51.988;7.646;2023-01-29T12:20:40;35.43;;;20.17;;
13263;SDS011;6700;51.988;7.646;2023-01-29T12:25:46;37.50;;;23.20;;
13263;SDS011;6700;51.988;7.646;2023-01-29T12:33:28;32.57;;;20.87;;
13263;SDS011;6700;51.988;7.646;2023-01-29T12:36:06;32.27;;;20.73;;
13263;SDS011;6700;51.988;7.646;2023-01-29T12:38:36;30.90;;;20.43;;
13263;SDS011;6700;51.988;7.646;2023-01-29T12:41:04;35.30;;;22.73;;
13263;SDS011;6700;51.988;7.646;2023-01-29T12:43:44;34.43;;;21.60;;
13263;SDS011;6700;51.988;7.646;2023-01-29T12:46:28;34.87;;;22.73;;
13263;SDS011;6700;51.988;7.646;2023-01-29T12:48:58;34.27;;;22.27;;
13263;SDS011;6700;51.988;7.646;2023-01-29T12:51:34;33.60;;;21.77;;
13263;SDS011;6700;51.988;7.646;2023-01-29T12:54:09;31.70;;;21.23;;
13263;SDS011;6700;51.988;7.646;2023-01-29T12:56:42;30.77;;;19.67;;
13263;SDS011;6700;51.988;7.646;2023-01-29T12:59:29;32.77;;;22.00;;
13263;SDS011;6700;51.988;7.646;2023-01-29T13:01:58;33.00;;;20.97;;
13263;SDS011;6700;51.988;7.646;2023-01-29T13:07:05;38.30;;;22.37;;
13263;SDS011;6700;51.988;7.646;2023-01-29T13:09:37;33.73;;;21.23;;
13263;SDS011;6700;51.988;7.646;2023-01-29T13:12:10;34.37;;;20.07;;
13263;SDS011;6700;51.988;7.646;2023-01-29T13:14:41;28.37;;;19.67;;
13263;SDS011;6700;51.988;7.646;2023-01-29T13:17:14;32.27;;;20.47;;
13263;SDS011;6700;51.988;7.646;2023-01-29T13:19:42;37.07;;;23.90;;
13263;SDS011;6700;51.988;7.646;2023-01-29T13:22:21;28.80;;;19.67;;
13263;SDS011;6700;51.988;7.646;2023-01-29T13:24:50;31.33;;;20.57;;
13263;SDS011;6700;51.988;7.646;2023-01-29T13:27:31;29.93;;;19.00;;
13263;SDS011;6700;51.988;7.646;2023-01-29T13:29:59;31.60;;;20.40;;
13263;SDS011;6700;51.988;7.646;2023-01-29T13:32:27;32.33;;;20.50;;
13263;SDS011;6700;51.988;7.646;2023-01-29T13:34:56;32.50;;;20.77;;
13263;SDS011;6700;51.988;7.646;2023-01-29T13:37:34;30.93;;;20.97;;
13263;SDS011;6700;51.988;7.646;2023-01-29T13:40:03;30.93;;;19.23;;
13263;SDS011;6700;51.988;7.646;2023-01-29T13:42:46;31.07;;;21.23;;
13263;SDS011;6700;51.988;7.646;2023-01-29T13:47:51;32.57;;;20.20;;
13263;SDS011;6700;51.988;7.646;2023-01-29T13:50:20;29.13;;;19.00;;
13263;SDS011;6700;51.988;7.646;2023-01-29T13:55:22;33.00;;;20.87;;
13263;SDS011;6700;51.988;7.646;2023-01-29T13:57:52;37.67;;;20.80;;
13263;SDS011;6700;51.988;7.646;2023-01-29T14:07:57;33.60;;;21.27;;
13263;SDS011;6700;51.988;7.646;2023-01-29T14:10:25;28.30;;;18.83;;
13263;SDS011;6700;51.988;7.646;2023-01-29T14:12:57;29.23;;;20.63;;
13263;SDS011;6700;51.988;7.646;2023-01-29T14:15:40;32.37;;;20.43;;
13263;SDS011;6700;51.988;7.646;2023-01-29T14:20:37;37.03;;;20.57;;
13263;SDS011;6700;51.988;7.646;2023-01-29T14:26:01;30.83;;;20.43;;
13263;SDS011;6700;51.988;7.646;2023-01-29T14:28:30;29.63;;;19.03;;
13263;SDS011;6700;51.988;7.646;2023-01-29T14:30:58;31.43;;;20.73;;
13263;SDS011;6700;51.988;7.646;2023-01-29T14:33:35;26.93;;;19.27;;
13263;SDS011;6700;51.988;7.646;2023-01-29T14:36:11;30.77;;;22.00;;
13263;SDS011;6700;51.988;7.646;2023-01-29T14:38:39;31.57;;;20.53;;
13263;SDS011;6700;51.988;7.646;2023-01-29T14:41:22;30.63;;;19.00;;
13263;SDS011;6700;51.988;7.646;2023-01-29T14:43:51;32.23;;;20.40;;
13263;SDS011;6700;51.988;7.646;2023-01-29T14:46:40;32.17;;;19.57;;
13263;SDS011;6700;51.988;7.646;2023-01-29T14:49:08;34.70;;;19.97;;
13263;SDS011;6700;51.988;7.646;2023-01-29T14:51:36;30.97;;;20.40;;
13263;SDS011;6700;51.988;7.646;2023-01-29T14:54:22;32.67;;;21.30;;
13263;SDS011;6700;51.988;7.646;2023-01-29T14:56:54;32.67;;;21.57;;
13263;SDS011;6700;51.988;7.646;2023-01-29T14:59:25;34.63;;;21.00;;
13263;SDS011;6700;51.988;7.646;2023-01-29T15:01:55;34.37;;;20.93;;
13263;SDS011;6700;51.988;7.646;2023-01-29T15:04:31;32.40;;;21.33;;
13263;SDS011;6700;51.988;7.646;2023-01-29T15:07:02;35.60;;;21.53;;
13263;SDS011;6700;51.988;7.646;2023-01-29T15:09:41;33.93;;;20.57;;
13263;SDS011;6700;51.988;7.646;2023-01-29T15:14:40;31.00;;;20.00;;
13263;SDS011;6700;51.988;7.646;2023-01-29T15:19:44;32.60;;;21.33;;
13263;SDS011;6700;51.988;7.646;2023-01-29T15:24:40;37.10;;;22.90;;
13263;SDS011;6700;51.988;7.646;2023-01-29T15:27:26;33.83;;;20.40;;
13263;SDS011;6700;51.988;7.646;2023-01-29T15:29:58;33.47;;;21.57;;
13263;SDS011;6700;51.988;7.646;2023-01-29T15:32:26;32.67;;;20.97;;
13263;SDS011;6700;51.988;7.646;2023-01-29T15:34:54;36.77;;;21.90;;
13263;SDS011;6700;51.988;7.646;2023-01-29T15:37:29;34.67;;;21.10;;
13263;SDS011;6700;51.988;7.646;2023-01-29T15:39:57;30.67;;;20.17;;
13263;SDS011;6700;51.988;7.646;2023-01-29T15:42:25;37.77;;;23.50;;
13263;SDS011;6700;51.988;7.646;2023-01-29T15:44:53;41.40;;;21.07;;
13263;SDS011;6700;51.988;7.646;2023-01-29T15:47:24;35.77;;;21.80;;
13263;SDS011;6700;51.988;7.646;2023-01-29T15:49:53;35.90;;;21.77;;
13263;SDS011;6700;51.988;7.646;2023-01-29T15:52:23;34.03;;;21.83;;
13263;SDS011;6700;51.988;7.646;2023-01-29T15:54:53;36.13;;;22.60;;
13263;SDS011;6700;51.988;7.646;2023-01-29T15:57:22;32.90;;;21.77;;
13263;SDS011;6700;51.988;7.646;2023-01-29T15:59:49;36.10;;;22.90;;
13263;SDS011;6700;51.988;7.646;2023-01-29T16:02:37;40.47;;;26.23;;
13263;SDS011;6700;51.988;7.646;2023-01-29T16:05:06;34.67;;;23.77;;
13263;SDS011;6700;51.988;7.646;2023-01-29T16:07:36;35.93;;;23.93;;
13263;SDS011;6700;51.988;7.646;2023-01-29T16:10:03;35.63;;;24.77;;
13263;SDS011;6700;51.988;7.646;2023-01-29T16:12:31;41.27;;;24.77;;
13263;SDS011;6700;51.988;7.646;2023-01-29T16:14:59;40.83;;;24.97;;
13263;SDS011;6700;51.988;7.646;2023-01-29T16:17:32;40.47;;;25.27;;
13263;SDS011;6700;51.988;7.646;2023-01-29T16:20:02;39.50;;;23.60;;
13263;SDS011;6700;51.988;7.646;2023-01-29T16:22:33;33.70;;;23.37;;
13263;SDS011;6700;51.988;7.646;2023-01-29T16:25:04;38.87;;;24.47;;
13263;SDS011;6700;51.988;7.646;2023-01-29T16:27:32;39.47;;;25.20;;
13263;SDS011;6700;51.988;7.646;2023-01-29T16:30:00;38.87;;;24.07;;
13263;SDS011;6700;51.988;7.646;2023-01-29T16:32:28;36.00;;;23.07;;
13263;SDS011;6700;51.988;7.646;2023-01-29T16:34:57;36.03;;;23.30;;
13263;SDS011;6700;51.988;7.646;2023-01-29T16:39:51;40.47;;;27.10;;
13263;SDS011;6700;51.988;7.646;2023-01-29T16:49:49;36.40;;;24.07;;
13263;SDS011;6700;51.988;7.646;2023-01-29T16:54:50;41.83;;;25.07;;
13263;SDS011;6700;51.988;7.646;2023-01-29T16:57:22;39.80;;;23.73;;
13263;SDS011;6700;51.988;7.646;2023-01-29T16:59:54;41.60;;;25.27;;
13263;SDS011;6700;51.988;7.646;2023-01-29T17:02:30;44.07;;;25.90;;
13263;SDS011;6700;51.988;7.646;2023-01-29T17:05:02;43.30;;;26.90;;
13263;SDS011;6700;51.988;7.646;2023-01-29T17:07:30;47.13;;;29.97;;
13263;SDS011;6700;51.988;7.646;2023-01-29T17:09:59;48.40;;;29.50;;
13263;SDS011;6700;51.988;7.646;2023-01-29T17:12:27;42.20;;;26.23;;
13263;SDS011;6700;51.988;7.646;2023-01-29T17:14:56;37.43;;;24.93;;
13263;SDS011;6700;51.988;7.646;2023-01-29T17:17:33;36.67;;;23.47;;
13263;SDS011;6700;51.988;7.646;2023-01-29T17:20:11;39.53;;;26.23;;
13263;SDS011;6700;51.988;7.646;2023-01-29T17:22:41;42.47;;;27.00;;
13263;SDS011;6700;51.988;7.646;2023-01-29T17:25:13;42.60;;;26.93;;
13263;SDS011;6700;51.988;7.646;2023-01-29T17:27:41;42.83;;;27.27;;